Terminal Aerodrome Forecast
Issued by NWS Hastings, NE

Home | Current Version | Previous Version | Text Only | Print | Product List | Glossary On
Versions: 1 2 3 4 5 6 7 8 9 10 11 12 13 14 15 16 17 18 19 20 21 22 23 24 25
000
FTUS43 KGID 251129
TAFGRI
TAF
KGRI 251129Z 2512/2612 02015KT P6SM -SHRA SCT015 OVC060
     FM251300 01015G22KT P6SM VCSH BKN015
     FM251600 36015G22KT P6SM VCSH SCT008 OVC010
     FM260000 34019G26KT P6SM SCT008 BKN015=

USA.gov is the U.S. government's official web portal to all federal, state and local government web resources and services.